Time;durP1;ratioP1;P1;durP2;ratioP2;P2;SDS_P1;SDS_P2;PMS_P1;PMS_P2;Temp;Humidity;BMP_temperature;BMP_pressure;BME280_temperature;BME280_humidity;BME280_pressure;Samples;Min_cycle;Max_cycle;Signal;HPM_P1;HPM_P2
2021/07/01 00:01:57;;;;;;;12.55;5.20;;;;;;;;;;4973303;28;20030;-70
2021/07/01 00:04:24;;;;;;;14.18;6.00;;;;;;;;;;4973651;28;20524;-68
2021/07/01 00:06:50;;;;;;;13.45;5.88;;;;;;;;;;4973206;28;20026;-67
2021/07/01 00:09:18;;;;;;;11.95;6.22;;;;;;;;;;4973017;28;20038;-66
2021/07/01 00:11:45;;;;;;;10.88;5.18;;;;;;;;;;4973614;28;20014;-67
2021/07/01 00:14:12;;;;;;;10.63;5.28;;;;;;;;;;4973484;28;20031;-65
2021/07/01 00:16:38;;;;;;;15.52;5.07;;;;;;;;;;4973049;28;20081;-66
2021/07/01 00:19:05;;;;;;;11.45;5.07;;;;;;;;;;4973418;28;20106;-67
2021/07/01 00:21:31;;;;;;;9.55;4.93;;;;;;;;;;4960950;28;20042;-70
2021/07/01 00:23:57;;;;;;;13.07;4.78;;;;;;;;;;4970088;28;20027;-71
2021/07/01 00:26:23;;;;;;;12.75;5.30;;;;;;;;;;4973335;28;20026;-67
2021/07/01 00:28:49;;;;;;;12.43;5.13;;;;;;;;;;4973292;28;20039;-69
2021/07/01 00:31:15;;;;;;;9.80;4.57;;;;;;;;;;4973045;28;20034;-71
2021/07/01 00:33:41;;;;;;;15.50;4.57;;;;;;;;;;4973299;28;20023;-76
2021/07/01 00:36:07;;;;;;;9.57;4.80;;;;;;;;;;4973129;28;20412;-69
2021/07/01 00:38:34;;;;;;;15.20;5.47;;;;;;;;;;4973208;28;20109;-69
2021/07/01 00:41:00;;;;;;;13.20;4.65;;;;;;;;;;4972875;28;20724;-71
2021/07/01 00:43:26;;;;;;;15.18;8.20;;;;;;;;;;4981064;28;20023;-70
2021/07/01 00:45:52;;;;;;;51.40;26.08;;;;;;;;;;4967660;28;20454;-70
2021/07/01 00:48:19;;;;;;;28.10;19.00;;;;;;;;;;4973797;28;20042;-71
2021/07/01 00:50:45;;;;;;;13.27;7.53;;;;;;;;;;4975715;28;20026;-70
2021/07/01 00:53:11;;;;;;;12.07;5.07;;;;;;;;;;4977230;28;20027;-70
2021/07/01 00:55:38;;;;;;;13.68;5.53;;;;;;;;;;4976925;28;20026;-70
2021/07/01 00:58:07;;;;;;;9.73;5.32;;;;;;;;;;4977038;28;20019;-71
2021/07/01 01:03:11;;;;;;;11.77;4.95;;;;;;;;;;4977108;28;20134;-70
2021/07/01 01:05:37;;;;;;;11.20;4.05;;;;;;;;;;4976817;28;20027;-69
2021/07/01 01:08:04;;;;;;;10.18;4.47;;;;;;;;;;4976711;28;20034;-70
2021/07/01 01:10:30;;;;;;;9.73;4.20;;;;;;;;;;4976837;28;20015;-71
2021/07/01 01:12:56;;;;;;;13.48;5.00;;;;;;;;;;4976846;28;20026;-71
2021/07/01 01:15:22;;;;;;;9.05;4.00;;;;;;;;;;4976596;28;20026;-69
2021/07/01 01:17:48;;;;;;;10.68;4.70;;;;;;;;;;4976657;28;20027;-69
2021/07/01 01:20:15;;;;;;;10.13;5.03;;;;;;;;;;4976596;28;20469;-70
2021/07/01 01:22:41;;;;;;;11.05;5.07;;;;;;;;;;4976679;28;20105;-69
2021/07/01 01:25:07;;;;;;;10.65;4.53;;;;;;;;;;4976660;28;20440;-70
2021/07/01 01:27:33;;;;;;;10.93;4.30;;;;;;;;;;4976548;28;20025;-69
2021/07/01 01:29:59;;;;;;;12.90;4.93;;;;;;;;;;4976182;28;20035;-69
2021/07/01 01:32:25;;;;;;;12.65;5.00;;;;;;;;;;4976168;28;20051;-70
2021/07/01 01:34:52;;;;;;;12.63;5.47;;;;;;;;;;4976066;28;20086;-69
2021/07/01 01:37:18;;;;;;;14.23;5.65;;;;;;;;;;4976231;28;20026;-69
2021/07/01 01:39:50;;;;;;;18.67;5.50;;;;;;;;;;4975945;28;20058;-70
2021/07/01 01:42:17;;;;;;;10.93;4.38;;;;;;;;;;4975934;28;20027;-69
2021/07/01 01:44:43;;;;;;;11.75;5.05;;;;;;;;;;4975823;28;20027;-67
2021/07/01 01:47:15;;;;;;;12.07;4.55;;;;;;;;;;4976200;28;20501;-68
2021/07/01 01:49:43;;;;;;;8.88;4.28;;;;;;;;;;4975751;28;20043;-67
2021/07/01 01:52:10;;;;;;;12.13;4.82;;;;;;;;;;4975943;28;20535;-68
2021/07/01 01:54:36;;;;;;;11.25;4.05;;;;;;;;;;4976273;28;20476;-67
2021/07/01 01:57:02;;;;;;;10.82;4.55;;;;;;;;;;4975840;28;20085;-66
2021/07/01 01:59:28;;;;;;;11.00;5.03;;;;;;;;;;4975198;28;20030;-66
2021/07/01 02:01:54;;;;;;;8.20;4.32;;;;;;;;;;4975299;28;20073;-66
2021/07/01 02:04:20;;;;;;;9.13;4.60;;;;;;;;;;4975706;28;20074;-69
2021/07/01 02:06:46;;;;;;;13.52;5.70;;;;;;;;;;4975452;28;20508;-69
2021/07/01 02:09:12;;;;;;;18.45;5.28;;;;;;;;;;4975407;28;20117;-68
2021/07/01 02:11:38;;;;;;;10.60;4.47;;;;;;;;;;4975667;28;20070;-70
2021/07/01 02:14:04;;;;;;;10.85;4.10;;;;;;;;;;4975137;28;20045;-67
2021/07/01 02:16:30;;;;;;;19.73;5.40;;;;;;;;;;4975303;28;20486;-67
2021/07/01 02:18:56;;;;;;;16.27;5.00;;;;;;;;;;4975139;28;20056;-66
2021/07/01 02:21:22;;;;;;;25.33;5.07;;;;;;;;;;4975711;28;20026;-72
2021/07/01 02:23:49;;;;;;;19.80;4.65;;;;;;;;;;4975301;28;20114;-70
2021/07/01 02:26:16;;;;;;;12.20;4.47;;;;;;;;;;4975369;28;20377;-71
2021/07/01 02:28:42;;;;;;;12.35;4.60;;;;;;;;;;4974943;28;20045;-72
2021/07/01 02:31:08;;;;;;;15.02;4.90;;;640.60;1612.80;;;;;;4974924;28;20031;-70
2021/07/01 02:33:34;;;;;;;14.45;4.70;;;;;;;;;;4975206;28;20031;-69
2021/07/01 02:36:00;;;;;;;9.43;4.18;;;;;;;;;;4989551;28;20038;-70
2021/07/01 02:38:26;;;;;;;12.55;3.90;;;;;;;;;;4974921;28;20026;-69
2021/07/01 02:40:53;;;;;;;13.02;4.70;;;;;;;;;;4975015;28;20027;-69
2021/07/01 02:43:19;;;;;;;8.55;4.20;;;;;;;;;;4974839;28;20052;-71
2021/07/01 02:45:45;;;;;;;12.57;3.90;;;;;;;;;;4975052;28;20030;-70
2021/07/01 02:48:11;;;;;;;10.07;4.22;;;;;;;;;;4974620;28;20034;-72
2021/07/01 02:50:37;;;;;;;7.63;4.15;;;;;;;;;;4974898;28;20022;-72
2021/07/01 02:53:03;;;;;;;8.85;4.10;;;;;;;;;;4974712;28;20073;-70
2021/07/01 02:55:29;;;;;;;9.18;4.07;;;;;;;;;;4974730;28;20027;-69
2021/07/01 02:57:55;;;;;;;7.57;3.58;;;;;;;;;;4974741;28;20027;-70
2021/07/01 03:00:21;;;;;;;9.45;3.53;;;;;;;;;;4974308;28;20080;-71
2021/07/01 03:02:47;;;;;;;7.20;3.45;;;;;;;;;;4974663;28;20381;-70
2021/07/01 03:05:13;;;;;;;11.77;3.20;;;;;;;;;;4974519;28;20031;-71
2021/07/01 03:07:39;;;;;;;7.43;3.45;;;;;;;;;;4974527;28;20015;-69
2021/07/01 03:10:06;;;;;;;10.05;3.67;;;;;;;;;;4974181;28;20058;-70
2021/07/01 03:12:32;;;;;;;8.82;4.13;;;;;;;;;;4974208;28;20015;-69
2021/07/01 03:14:58;;;;;;;7.57;4.10;;;;;;;;;;4974189;28;20030;-71
2021/07/01 03:17:24;;;;;;;11.60;4.28;;;;;;;;;;4974630;28;20019;-69
2021/07/01 03:19:50;;;;;;;14.20;8.40;;;;;;;;;;4974614;28;20030;-71
2021/07/01 03:22:16;;;;;;;8.80;6.32;;;;;;;;;;4974307;28;20026;-67
2021/07/01 03:24:42;;;;;;;10.88;4.10;;;;;;;;;;4974111;28;20023;-70
2021/07/01 03:27:09;;;;;;;8.52;3.53;;;;;;;;;;4973997;28;20105;-70
2021/07/01 03:29:35;;;;;;;8.95;3.80;;;;;;;;;;4974421;28;20059;-68
2021/07/01 03:32:01;;;;;;;6.57;3.72;;;;;;;;;;4973678;28;20532;-68
2021/07/01 03:34:27;;;;;;;9.68;3.67;;;;;;;;;;4973922;28;20031;-68
2021/07/01 03:36:53;;;;;;;6.07;3.60;;;;;;;;;;4974073;28;20019;-69
2021/07/01 03:39:19;;;;;;;8.77;3.75;;;;;;;;;;4973715;28;20031;-68
2021/07/01 03:41:45;;;;;;;6.85;3.85;;;;;;;;;;4973743;28;20034;-69
2021/07/01 03:44:13;;;;;;;6.68;3.50;;;;;;;;;;4973892;28;20037;-67
2021/07/01 03:46:39;;;;;;;8.68;3.88;;;;;;;;;;4973492;28;20021;-69
2021/07/01 03:49:05;;;;;;;7.90;4.13;;;;;;;;;;4973928;28;20042;-68
2021/07/01 03:51:32;;;;;;;7.38;4.13;;;;;;;;;;4973599;28;20026;-68
2021/07/01 03:53:58;;;;;;;8.45;3.80;;;;;;;;;;4973667;28;20037;-69
2021/07/01 03:56:24;;;;;;;7.22;4.00;;;;;;;;;;4973759;28;20359;-69
2021/07/01 03:58:50;;;;;;;8.98;4.05;;;;;;;;;;4973674;28;20042;-70
2021/07/01 04:01:16;;;;;;;6.47;4.13;;;;;;;;;;4973569;28;20089;-69
2021/07/01 04:03:42;;;;;;;7.85;4.13;;;;;;;;;;4973548;28;20023;-69
2021/07/01 04:06:08;;;;;;;9.40;4.20;;;;;;;;;;4973379;28;20031;-68
2021/07/01 04:08:36;;;;;;;7.90;3.92;;;;;;;;;;4973245;28;20034;-70
2021/07/01 04:11:04;;;;;;;8.20;3.70;;;589.20;1920.00;;;;;;4973437;28;20070;-69
2021/07/01 04:13:30;;;;;;;9.82;4.15;;;589.10;1920.00;;;;;;4973348;28;20041;-69
2021/07/01 04:15:55;;;;;;;4.68;3.20;;;589.00;1945.60;;;;;;4973560;28;20461;-70
2021/07/01 04:18:21;;;;;;;5.97;3.33;;;589.00;1971.20;;;;;;4973699;28;20027;-70
2021/07/01 04:20:47;;;;;;;7.97;4.00;;;589.30;1945.60;;;;;;4973598;28;20434;-69
2021/07/01 04:23:13;;;;;;;8.63;3.85;;;;;;;;;;4973085;28;20053;-69
2021/07/01 04:25:39;;;;;;;8.43;3.70;;;;;;;;;;4973339;28;20031;-70
2021/07/01 04:28:05;;;;;;;7.95;4.28;;;;;;;;;;4973340;28;20035;-67
2021/07/01 04:30:31;;;;;;;9.88;4.47;;;614.40;1843.20;;;;;;4973444;28;20381;-70
2021/07/01 04:32:57;;;;;;;9.18;4.40;;;;;;;;;;4973334;28;20055;-69
2021/07/01 04:35:23;;;;;;;11.30;4.50;;;;;;;;;;4973709;28;20496;-69
2021/07/01 04:37:51;;;;;;;9.15;4.40;;;;;;;;;;4973329;28;20492;-69
2021/07/01 04:40:17;;;;;;;6.07;3.85;;;;;;;;;;4973165;28;20031;-69
2021/07/01 04:42:43;;;;;;;8.07;3.92;;;;;;;;;;4988170;28;20037;-70
2021/07/01 04:45:09;;;;;;;6.10;3.42;;;;;;;;;;4972816;28;20034;-69
2021/07/01 04:47:36;;;;;;;12.15;4.25;;;;;;;;;;4973231;28;20081;-69
2021/07/01 04:50:03;;;;;;;9.30;4.80;;;;;;;;;;4972657;28;20034;-66
2021/07/01 04:52:29;;;;;;;8.48;5.18;;;;;;;;;;4972954;28;20481;-68
2021/07/01 04:54:55;;;;;;;8.05;4.00;;;;;;;;;;4972795;28;20488;-68
2021/07/01 04:57:21;;;;;;;6.60;3.92;;;;;;;;;;4972892;28;20034;-69
2021/07/01 04:59:48;;;;;;;11.73;5.72;;;;;;;;;;4971703;28;20038;-70
2021/07/01 05:02:14;;;;;;;8.27;4.20;;;;;;;;;;4972717;28;20409;-69
2021/07/01 05:04:40;;;;;;;10.15;4.05;;;;;;;;;;4972860;28;20027;-69
2021/07/01 05:07:06;;;;;;;12.02;4.20;;;;;;;;;;4972703;28;20023;-69
2021/07/01 05:09:32;;;;;;;11.18;4.25;;;;;;;;;;4972634;28;20053;-68
2021/07/01 05:11:58;;;;;;;10.00;4.10;;;;;;;;;;4972968;28;20381;-67
2021/07/01 05:14:24;;;;;;;9.18;4.28;;;640.10;1638.40;;;;;;4972818;28;20541;-68
2021/07/01 05:16:50;;;;;;;10.10;4.25;;;640.20;1638.40;;;;;;4971223;28;20174;-68
2021/07/01 05:19:17;;;;;;;11.57;4.25;;;;;;;;;;4972837;28;20030;-68
2021/07/01 05:21:43;;;;;;;10.13;4.28;;;;;;;;;;4972512;28;20082;-69
2021/07/01 05:24:09;;;;;;;11.38;4.55;;;;;;;;;;4972439;28;20421;-68
2021/07/01 05:26:35;;;;;;;14.38;4.88;;;;;;;;;;4972388;28;20037;-69
2021/07/01 05:29:01;;;;;;;18.42;7.13;;;;;;;;;;4972540;28;20485;-69
2021/07/01 05:31:27;;;;;;;15.48;4.97;;;665.80;1638.40;;;;;;4972268;28;20045;-69
2021/07/01 05:33:53;;;;;;;9.30;4.20;;;665.70;1612.80;;;;;;4973109;28;20031;-70
2021/07/01 05:36:19;;;;;;;8.70;4.28;;;;;;;;;;4975958;28;20019;-69
2021/07/01 05:38:45;;;;;;;11.02;4.78;;;;;;;;;;4976294;28;20031;-69
2021/07/01 05:41:11;;;;;;;17.25;5.00;;;;;;;;;;4976001;28;20034;-69
2021/07/01 05:43:37;;;;;;;12.43;5.80;;;;;;;;;;4976386;28;20018;-69
2021/07/01 05:46:03;;;;;;;10.75;4.40;;;;;;;;;;4974937;28;20449;-70
2021/07/01 05:48:29;;;;;;;10.55;5.50;;;;;;;;;;4976340;28;20034;-71
2021/07/01 05:53:28;;;;;;;12.50;4.07;;;;;;;;;;4975722;28;20413;-69
2021/07/01 05:55:55;;;;;;;15.90;4.57;;;;;;;;;;4975787;28;20477;-72
2021/07/01 05:58:21;;;;;;;11.68;4.40;;;;;;;;;;4975892;28;20089;-72
2021/07/01 06:00:47;;;;;;;8.65;3.70;;;;;;;;;;4975991;28;20080;-70
2021/07/01 06:03:13;;;;;;;6.82;3.35;;;;;;;;;;4976183;28;20034;-69
2021/07/01 06:05:41;;;;;;;9.38;4.15;;;;;;;;;;4975951;28;20018;-70
2021/07/01 06:08:09;;;;;;;11.55;3.90;;;;;;;;;;4976311;28;20117;-70
2021/07/01 06:10:38;;;;;;;8.45;4.65;;;;;;;;;;4975728;28;20027;-69
2021/07/01 06:13:06;;;;;;;7.72;4.03;;;;;;;;;;4975716;28;20026;-69
2021/07/01 06:15:35;;;;;;;11.55;4.25;;;;;;;;;;4975517;28;20452;-70
2021/07/01 06:18:02;;;;;;;11.38;3.78;;;;;;;;;;4975703;28;20042;-69
2021/07/01 06:20:28;;;;;;;11.40;4.55;;;;;;;;;;5134103;23;20081;-70
2021/07/01 06:22:55;;;;;;;11.00;4.90;;;;;;;;;;5014853;28;20022;-67
2021/07/01 06:25:23;;;;;;;12.73;4.60;;;;;;;;;;5014299;28;20010;-67
2021/07/01 06:27:49;;;;;;;10.13;3.95;;;;;;;;;;5014500;28;20026;-70
2021/07/01 06:32:46;;;;;;;10.18;4.25;;;;;;;;;;5014483;28;20022;-70
2021/07/01 06:35:13;;;;;;;6.43;3.80;;;;;;;;;;5014572;28;20026;-71
2021/07/01 06:37:40;;;;;;;7.90;4.00;;;;;;;;;;5014623;28;20025;-70
2021/07/01 06:40:07;;;;;;;9.85;3.85;;;;;;;;;;5014205;28;20137;-71
2021/07/01 06:42:38;;;;;;;11.13;5.20;;;;;;;;;;5014403;28;20088;-71
2021/07/01 06:45:04;;;;;;;10.20;4.63;;;;;;;;;;5014047;28;20026;-73
2021/07/01 06:47:31;;;;;;;7.75;3.50;;;;;;;;;;5013713;28;20026;-71
2021/07/01 06:49:57;;;;;;;10.75;3.80;;;;;;;;;;5013714;28;20074;-73
2021/07/01 06:52:23;;;;;;;9.63;4.28;;;;;;;;;;4996010;28;20026;-72
2021/07/01 06:54:50;;;;;;;10.68;4.35;;;;;;;;;;5013731;28;20169;-71
2021/07/01 06:57:17;;;;;;;10.95;4.57;;;;;;;;;;5013821;28;20054;-73
2021/07/01 06:59:43;;;;;;;10.23;5.03;;;;;;;;;;5013872;28;20384;-71
2021/07/01 07:02:10;;;;;;;23.90;5.55;;;;;;;;;;5013325;28;20030;-71
2021/07/01 07:04:37;;;;;;;16.45;4.75;;;;;;;;;;5013666;28;20033;-71
2021/07/01 07:07:05;;;;;;;12.20;4.40;;;;;;;;;;5013318;28;20516;-69
2021/07/01 07:09:31;;;;;;;6.45;3.00;;;;;;;;;;5013433;28;20439;-70
2021/07/01 07:11:57;;;;;;;17.15;4.60;;;;;;;;;;5013620;28;20030;-71
2021/07/01 07:14:23;;;;;;;8.55;3.67;;;;;;;;;;4978371;28;20101;-73
2021/07/01 07:16:49;;;;;;;10.65;3.65;;;;;;;;;;5011614;28;20014;-71
2021/07/01 07:19:17;;;;;;;5.40;3.10;;;;;;;;;;4992241;28;20030;-73
2021/07/01 07:21:45;;;;;;;8.57;3.50;;;;;;;;;;5005618;28;20109;-74
2021/07/01 07:24:13;;;;;;;7.82;3.90;;;;;;;;;;5012803;28;20117;-73
2021/07/01 07:26:39;;;;;;;4.38;2.72;;;;;;;;;;5013280;28;20037;-68
2021/07/01 07:29:08;;;;;;;7.53;3.10;;;;;;;;;;5012908;28;20078;-68
2021/07/01 07:31:38;;;;;;;3.80;2.90;;;;;;;;;;5013057;28;20022;-68
2021/07/01 07:34:04;;;;;;;9.85;4.32;;;;;;;;;;5013106;28;20025;-67
2021/07/01 07:36:31;;;;;;;9.68;4.30;;;;;;;;;;5013188;28;20021;-67
2021/07/01 07:38:57;;;;;;;6.22;3.65;;;;;;;;;;5013010;28;20049;-69
2021/07/01 07:41:24;;;;;;;9.68;4.40;;;;;;;;;;5012990;28;20022;-70
2021/07/01 07:43:52;;;;;;;5.07;3.03;;;;;;;;;;5012540;28;20026;-69
2021/07/01 07:46:19;;;;;;;8.07;3.83;;;;;;;;;;5012401;28;20049;-70
2021/07/01 07:48:45;;;;;;;9.52;5.18;;;;;;;;;;5012884;28;20113;-71
2021/07/01 07:51:14;;;;;;;6.57;3.00;;;;;;;;;;5012940;28;20056;-68
2021/07/01 07:53:41;;;;;;;7.35;3.65;;;;;;;;;;5012700;28;20018;-69
2021/07/01 07:56:08;;;;;;;13.00;4.05;;;;;;;;;;5012738;28;20148;-70
2021/07/01 07:58:39;;;;;;;10.65;5.72;;;;;;;;;;5011849;28;20045;-68
2021/07/01 08:01:05;;;;;;;5.40;3.00;;;;;;;;;;5012656;28;20488;-70
2021/07/01 08:03:32;;;;;;;9.25;3.83;;;;;;;;;;5011454;28;20309;-70
2021/07/01 08:05:59;;;;;;;12.05;4.50;;;;;;;;;;5012233;28;20040;-75
2021/07/01 08:08:25;;;;;;;4.53;3.00;;;;;;;;;;5012109;28;20026;-71
2021/07/01 08:10:51;;;;;;;4.70;3.03;;;742.90;1126.40;;;;;;5012494;28;20021;-72
2021/07/01 08:13:21;;;;;;;9.63;4.15;;;742.90;1126.40;;;;;;5012338;28;20032;-72
2021/07/01 08:15:47;;;;;;;11.68;5.35;;;743.00;1152.00;;;;;;5012010;28;20017;-71
2021/07/01 08:18:24;;;;;;;10.13;3.60;;;743.10;1152.00;;;;;;5012050;28;20021;-71
2021/07/01 08:20:50;;;;;;;6.90;4.07;;;743.20;1126.40;;;;;;5011414;28;20136;-73
2021/07/01 08:23:18;;;;;;;14.52;6.90;;;743.30;1203.20;;;;;;5011673;28;20022;-70
2021/07/01 08:25:44;;;;;;;7.63;4.22;;;768.10;1126.40;;;;;;5011473;28;20029;-73
2021/07/01 08:28:10;;;;;;;7.80;4.18;;;743.30;1152.00;;;;;;5011352;28;20041;-70
2021/07/01 08:30:36;;;;;;;7.40;2.83;;;743.30;1152.00;;;;;;5011769;28;20045;-67
2021/07/01 08:33:03;;;;;;;9.38;4.85;;;743.30;1100.80;;;;;;4993873;28;20528;-69
2021/07/01 08:35:30;;;;;;;11.10;4.15;;;743.30;1126.40;;;;;;5011749;28;20026;-69
2021/07/01 08:38:01;;;;;;;20.30;16.58;;;768.00;1100.80;;;;;;5008888;28;20068;-70
2021/07/01 08:40:33;;;;;;;31.75;23.27;;;768.10;1100.80;;;;;;5011604;28;20029;-73
2021/07/01 08:43:00;;;;;;;51.72;44.13;;;768.20;1100.80;;;;;;5008030;28;20026;-68
2021/07/01 08:45:40;;;;;;;10.13;6.45;;;768.20;1152.00;;;;;;5008970;28;20037;-70
2021/07/01 08:48:18;;;;;;;25.70;20.33;;;768.50;1075.20;;;;;;5008762;28;20072;-70
2021/07/01 08:50:53;;;;;;;49.75;39.20;;;768.50;1126.40;;;;;;5011842;28;20033;-71
2021/07/01 08:54:02;;;;;;;30.95;21.67;;;768.70;1100.80;;;;;;5011843;28;20074;-71
2021/07/01 08:56:34;;;;;;;19.58;12.18;;;;;;;;;;4839450;29;20476;-71
2021/07/01 08:59:04;;;;;;;12.90;6.22;;;;;;;;;;4838847;29;20080;-71
2021/07/01 09:01:30;;;;;;;8.35;4.75;;;;;;;;;;4839574;29;20052;-72
2021/07/01 09:03:58;;;;;;;8.65;5.97;;;;;;;;;;4843200;29;20037;-71
2021/07/01 09:06:24;;;;;;;6.18;3.72;;;;;;;;;;4846809;29;20049;-72
2021/07/01 09:08:52;;;;;;;10.50;8.18;;;;;;;;;;4840318;29;20049;-72
2021/07/01 09:11:22;;;;;;;7.85;5.38;;;;;;;;;;4843170;29;20034;-71
2021/07/01 09:13:49;;;;;;;22.17;16.23;;;794.10;1049.60;;;;;;4843033;29;20576;-71
2021/07/01 09:16:17;;;;;;;10.65;7.82;;;794.00;1075.20;;;;;;4843269;29;20404;-71
2021/07/01 09:18:45;;;;;;;13.75;8.45;;;793.90;1049.60;;;;;;4843943;29;20544;-72
2021/07/01 09:21:13;;;;;;;9.90;5.15;;;793.90;1049.60;;;;;;4843222;29;20420;-72
2021/07/01 09:23:45;;;;;;;14.02;9.07;;;;;;;;;;4843217;29;20044;-70
2021/07/01 09:26:16;;;;;;;13.65;8.50;;;;;;;;;;4842212;29;20042;-70
2021/07/01 09:28:42;;;;;;;9.77;7.75;;;;;;;;;;4843011;29;20038;-70
2021/07/01 09:31:08;;;;;;;11.88;7.47;;;;;;;;;;4842395;29;20512;-70
2021/07/01 09:33:35;;;;;;;10.95;6.63;;;;;;;;;;4943885;28;20117;-70
2021/07/01 09:36:01;;;;;;;6.20;3.92;;;;;;;;;;5014412;28;20420;-70
2021/07/01 09:38:28;;;;;;;5.72;3.65;;;;;;;;;;5001633;28;20042;-71
2021/07/01 09:40:55;;;;;;;8.88;6.45;;;;;;;;;;5015544;28;20022;-71
2021/07/01 09:43:22;;;;;;;11.93;6.22;;;;;;;;;;5014942;28;20025;-70
2021/07/01 09:45:51;;;;;;;8.45;6.07;;;;;;;;;;5015277;28;20029;-70
2021/07/01 09:48:19;;;;;;;6.63;3.60;;;;;;;;;;5015041;28;20109;-71
2021/07/01 09:50:48;;;;;;;6.20;3.95;;;;;;;;;;5015431;28;20034;-71
2021/07/01 09:53:16;;;;;;;5.53;4.00;;;;;;;;;;5015052;28;20034;-71
2021/07/01 09:55:44;;;;;;;7.38;4.78;;;;;;;;;;5014978;28;20014;-71
2021/07/01 09:58:14;;;;;;;9.20;5.28;;;;;;;;;;5023056;28;20025;-71
2021/07/01 10:00:40;;;;;;;8.40;3.80;;;;;;;;;;5017168;28;20546;-71
2021/07/01 10:03:07;;;;;;;8.13;4.70;;;;;;;;;;5021589;28;20022;-71
2021/07/01 10:05:34;;;;;;;6.25;3.40;;;;;;;;;;5014122;28;20092;-69
2021/07/01 10:08:01;;;;;;;6.03;3.28;;;;;;;;;;5013880;28;20421;-70
2021/07/01 10:10:27;;;;;;;4.45;2.90;;;;;;;;;;5014183;28;20030;-68
2021/07/01 10:12:56;;;;;;;19.45;16.38;;;;;;;;;;5013754;28;20069;-68
2021/07/01 10:15:30;;;;;;;65.53;56.70;;;;;;;;;;5009781;28;20022;-71
2021/07/01 10:18:06;;;;;;;10.10;7.82;;;;;;;;;;5011729;28;20036;-72
2021/07/01 10:20:36;;;;;;;40.45;34.80;;;;;;;;;;5012267;28;20060;-74
2021/07/01 10:23:03;;;;;;;15.73;8.45;;;;;;;;;;5011373;28;20045;-71
2021/07/01 10:25:30;;;;;;;8.25;6.65;;;;;;;;;;5011621;28;20033;-71
2021/07/01 10:27:58;;;;;;;64.60;51.95;;;;;;;;;;5013436;28;20499;-69
2021/07/01 10:30:24;;;;;;;83.47;66.60;;;;;;;;;;5013170;28;20022;-70
2021/07/01 10:32:54;;;;;;;165.35;147.15;;;;;;;;;;5013153;28;20026;-71
2021/07/01 10:35:30;;;;;;;40.90;35.97;;;;;;;;;;5013490;28;20118;-72
2021/07/01 10:38:08;;;;;;;199.13;177.82;;;;;;;;;;5013133;28;20033;-73
2021/07/01 10:40:54;;;;;;;145.07;128.88;;;;;;;;;;5012937;28;20040;-68
2021/07/01 10:43:21;;;;;;;45.45;38.08;;;;;;;;;;5013522;28;20029;-68
2021/07/01 10:45:57;;;;;;;132.05;117.50;;;;;;;;;;5012369;28;20018;-68
2021/07/01 10:48:24;;;;;;;136.10;121.28;;;;;;;;;;5011544;28;20029;-67
2021/07/01 10:50:51;;;;;;;165.35;148.25;;;;;;;;;;5013823;28;20093;-72
2021/07/01 10:53:28;;;;;;;48.40;42.20;;;;;;;;;;5013902;28;20384;-70
2021/07/01 10:55:55;;;;;;;24.40;19.45;;;;;;;;;;5012875;28;20017;-70
2021/07/01 10:58:21;;;;;;;64.00;56.63;;;844.90;921.60;;;;;;5012402;28;20051;-70
2021/07/01 11:00:47;;;;;;;114.85;102.55;;;844.90;947.20;;;;;;5012798;28;20152;-74
2021/07/01 11:03:21;;;;;;;20.05;16.73;;;845.10;947.20;;;;;;5012965;28;20535;-72
2021/07/01 11:05:48;;;;;;;11.75;8.63;;;845.10;921.60;;;;;;5001346;28;20026;-72
2021/07/01 11:08:27;;;;;;;8.75;6.22;;;845.20;921.60;;;;;;5013340;28;20045;-71
2021/07/01 11:10:54;;;;;;;84.47;73.38;;;845.00;947.20;;;;;;5013521;28;20096;-72
2021/07/01 11:13:24;;;;;;;54.70;48.80;;;844.90;972.80;;;;;;5013537;28;20037;-71
2021/07/01 11:16:07;;;;;;;25.73;19.13;;;844.90;972.80;;;;;;5013033;28;20028;-71
2021/07/01 11:18:42;;;;;;;7.60;6.05;;;845.10;972.80;;;;;;5023363;28;20026;-71
2021/07/01 11:21:15;;;;;;;31.63;27.30;;;845.10;972.80;;;;;;5011847;28;20057;-71
2021/07/01 11:23:44;;;;;;;17.33;9.57;;;844.90;998.40;;;;;;5012360;28;20501;-71
2021/07/01 11:26:26;;;;;;;19.30;15.60;;;844.90;972.80;;;;;;5012561;28;20037;-71
2021/07/01 11:28:53;;;;;;;17.00;10.98;;;820.10;972.80;;;;;;5010337;28;20034;-72
2021/07/01 11:31:19;;;;;;;18.08;12.23;;;820.10;947.20;;;;;;5012662;28;20056;-72
2021/07/01 11:33:53;;;;;;;13.73;9.68;;;844.90;972.80;;;;;;5012202;28;20061;-72
2021/07/01 11:36:19;;;;;;;12.65;9.20;;;845.00;972.80;;;;;;5012227;28;20630;-72
2021/07/01 11:38:46;;;;;;;11.70;8.00;;;;;;;;;;5012607;28;20057;-73
2021/07/01 11:41:14;;;;;;;27.02;14.85;;;845.20;947.20;;;;;;5012567;28;20091;-72
2021/07/01 11:43:42;;;;;;;16.77;10.95;;;845.30;947.20;;;;;;5012641;28;20034;-72
2021/07/01 11:46:08;;;;;;;14.57;8.45;;;845.40;947.20;;;;;;5012228;28;20026;-72
2021/07/01 11:48:36;;;;;;;15.00;9.63;;;845.40;947.20;;;;;;5012178;28;20061;-72
2021/07/01 11:51:05;;;;;;;18.83;12.25;;;845.30;947.20;;;;;;5010138;28;20538;-72
2021/07/01 11:53:31;;;;;;;21.73;15.88;;;845.30;947.20;;;;;;5012761;28;20075;-72
2021/07/01 11:56:00;;;;;;;27.52;15.93;;;845.20;972.80;;;;;;5012925;28;20030;-72
2021/07/01 11:58:28;;;;;;;57.75;37.47;;;845.20;947.20;;;;;;5012222;28;20034;-72
2021/07/01 12:00:55;;;;;;;36.97;23.73;;;845.20;972.80;;;;;;5012559;28;20017;-72
2021/07/01 12:03:21;;;;;;;31.48;14.45;;;845.00;972.80;;;;;;5012362;28;20407;-72
2021/07/01 12:05:49;;;;;;;57.53;38.63;;;844.90;972.80;;;;;;5012584;28;20022;-72
2021/07/01 12:08:15;;;;;;;15.43;10.35;;;820.10;972.80;;;;;;5011949;28;20029;-72
2021/07/01 12:10:42;;;;;;;75.03;48.58;;;820.00;947.20;;;;;;5012027;28;20034;-72
2021/07/01 12:13:38;;;;;;;33.50;18.77;;;;;;;;;;5011861;28;20018;-72
2021/07/01 12:16:06;;;;;;;24.77;15.38;;;819.80;1024.00;;;;;;5007711;28;20022;-72
2021/07/01 12:18:45;;;;;;;9.13;6.20;;;;;;;;;;5011957;28;20488;-72
2021/07/01 12:21:15;;;;;;;29.33;14.82;;;;;;;;;;5011057;28;20125;-72
2021/07/01 12:23:51;;;;;;;22.02;13.98;;;;;;;;;;5012147;28;20547;-72
2021/07/01 12:26:36;;;;;;;20.33;12.32;;;;;;;;;;5011586;28;20044;-72
2021/07/01 12:29:03;;;;;;;70.07;42.28;;;;;;;;;;5011229;28;20037;-71
2021/07/01 12:31:29;;;;;;;51.42;34.25;;;;;;;;;;5011701;28;20037;-72
2021/07/01 12:33:56;;;;;;;66.55;39.40;;;;;;;;;;5011600;28;20021;-72
2021/07/01 12:36:28;;;;;;;85.97;57.45;;;;;;;;;;5011746;28;20036;-72
2021/07/01 12:39:11;;;;;;;33.22;21.38;;;;;;;;;;5011485;28;20072;-70
2021/07/01 12:41:43;;;;;;;168.23;120.20;;;;;;;;;;5009713;28;20046;-72
2021/07/01 12:44:28;;;;;;;119.88;86.45;;;;;;;;;;5011046;28;20026;-72
2021/07/01 12:46:55;;;;;;;107.85;74.75;;;;;;;;;;5011290;28;20121;-71
2021/07/01 12:49:24;;;;;;;18.00;12.27;;;;;;;;;;4991360;28;20049;-71
2021/07/01 12:52:06;;;;;;;17.33;7.97;;;;;;;;;;5011605;28;20499;-72
2021/07/01 12:54:33;;;;;;;33.03;22.23;;;;;;;;;;5011726;28;20032;-71
2021/07/01 12:57:02;;;;;;;54.78;39.15;;;;;;;;;;5012198;28;20480;-71
2021/07/01 12:59:32;;;;;;;15.23;8.55;;;;;;;;;;5012401;28;20080;-68
2021/07/01 13:02:02;;;;;;;27.10;16.03;;;;;;;;;;5012155;28;20105;-69
2021/07/01 13:04:29;;;;;;;23.00;15.65;;;;;;;;;;5011585;28;20028;-70
2021/07/01 13:06:56;;;;;;;20.15;13.65;;;;;;;;;;5011717;28;20508;-68
2021/07/01 13:09:28;;;;;;;16.75;11.23;;;;;;;;;;5011985;28;20034;-68
2021/07/01 13:11:55;;;;;;;17.08;10.57;;;;;;;;;;5011906;28;20017;-70
2021/07/01 13:14:25;;;;;;;10.65;6.40;;;;;;;;;;5012236;28;20047;-70
2021/07/01 13:17:00;;;;;;;12.52;7.43;;;;;;;;;;5011630;28;20093;-70
2021/07/01 13:19:26;;;;;;;9.27;4.35;;;;;;;;;;5011766;28;20120;-70
2021/07/01 13:21:55;;;;;;;13.93;8.75;;;;;;;;;;5011605;28;20038;-71
2021/07/01 13:24:21;;;;;;;13.65;6.50;;;;;;;;;;5011435;28;20022;-71
2021/07/01 13:26:48;;;;;;;14.43;7.55;;;;;;;;;;5011177;28;20088;-69
2021/07/01 13:29:33;;;;;;;9.38;4.97;;;;;;;;;;5011555;28;20042;-70
2021/07/01 13:32:04;;;;;;;7.35;3.80;;;;;;;;;;5011307;28;20034;-70
2021/07/01 13:34:30;;;;;;;9.48;5.05;;;;;;;;;;5016007;28;20056;-70
2021/07/01 13:36:56;;;;;;;8.05;3.88;;;;;;;;;;5023289;28;20022;-70
2021/07/01 13:39:29;;;;;;;8.18;4.63;;;;;;;;;;5017577;28;20092;-71
2021/07/01 13:41:55;;;;;;;13.93;5.75;;;;;;;;;;5011719;28;20025;-70
2021/07/01 13:44:21;;;;;;;7.78;4.30;;;;;;;;;;5011975;28;20037;-72
2021/07/01 13:46:47;;;;;;;10.18;4.13;;;;;;;;;;5011280;28;20018;-71
2021/07/01 13:49:13;;;;;;;11.10;4.18;;;;;;;;;;5017972;28;20052;-72
2021/07/01 13:51:39;;;;;;;7.90;4.25;;;;;;;;;;5011376;28;20476;-71
2021/07/01 13:54:13;;;;;;;6.85;3.90;;;;;;;;;;5011548;28;20069;-71
2021/07/01 13:56:40;;;;;;;5.93;3.50;;;;;;;;;;5012804;28;20014;-71
2021/07/01 13:59:08;;;;;;;7.05;4.22;;;;;;;;;;5017050;28;20037;-71
2021/07/01 14:01:34;;;;;;;6.53;5.07;;;;;;;;;;5014471;28;20037;-70
2021/07/01 14:04:00;;;;;;;8.38;4.10;;;;;;;;;;5014285;28;20056;-71
2021/07/01 14:06:26;;;;;;;8.05;4.22;;;;;;;;;;5011567;28;20022;-74
2021/07/01 14:08:52;;;;;;;9.48;4.40;;;;;;;;;;5013824;28;20022;-71
2021/07/01 14:11:22;;;;;;;12.95;4.15;;;;;;;;;;5014319;28;20025;-73
2021/07/01 14:13:49;;;;;;;7.77;4.17;;;;;;;;;;5011940;28;20033;-71
2021/07/01 14:16:39;;;;;;;6.20;3.92;;;;;;;;;;5014390;28;20044;-70